createdAt,value
2018-09-06T00:00:08.090Z,0.00
2018-09-06T00:01:08.242Z,0.00
2018-09-06T00:02:08.397Z,0.00
2018-09-06T00:03:08.554Z,0.00
2018-09-06T00:04:08.707Z,0.00
2018-09-06T00:05:08.862Z,0.00
2018-09-06T00:06:09.015Z,0.00
2018-09-06T00:07:09.170Z,0.00
2018-09-06T00:08:09.327Z,0.00
2018-09-06T00:09:09.479Z,0.00
2018-09-06T00:10:09.635Z,0.00
2018-09-06T00:11:09.788Z,0.00
2018-09-06T00:12:09.941Z,0.00
2018-09-06T00:13:10.094Z,0.00
2018-09-06T00:14:10.249Z,0.00
2018-09-06T00:15:10.405Z,0.00
2018-09-06T00:16:10.558Z,0.00
2018-09-06T00:17:10.718Z,0.00
2018-09-06T00:18:10.870Z,0.00
2018-09-06T00:19:11.027Z,0.00
2018-09-06T00:20:11.186Z,0.00
2018-09-06T00:21:11.334Z,0.00
2018-09-06T00:22:11.490Z,0.00
2018-09-06T00:23:11.644Z,0.00
2018-09-06T00:24:11.798Z,0.00
2018-09-06T00:25:11.953Z,0.00
2018-09-06T00:26:12.107Z,0.00
2018-09-06T00:27:12.261Z,0.00
2018-09-06T00:28:12.412Z,0.00
2018-09-06T00:29:12.567Z,0.00
2018-09-06T00:30:12.722Z,0.00
2018-09-06T00:31:12.875Z,0.00
2018-09-06T00:32:13.029Z,0.00
2018-09-06T00:33:13.183Z,0.00
2018-09-06T00:34:13.336Z,0.00
2018-09-06T00:35:13.492Z,0.00
2018-09-06T00:36:13.644Z,0.00
2018-09-06T00:37:13.799Z,0.00
2018-09-06T00:38:13.950Z,0.00
2018-09-06T00:39:14.105Z,0.00
2018-09-06T00:40:14.256Z,0.00
2018-09-06T00:41:14.412Z,0.00
2018-09-06T00:42:14.567Z,0.00
2018-09-06T00:43:14.718Z,0.00
2018-09-06T00:44:14.873Z,0.00
2018-09-06T00:45:15.028Z,0.00
2018-09-06T00:46:15.179Z,0.00
2018-09-06T00:47:15.333Z,0.00
2018-09-06T00:48:15.484Z,0.00
2018-09-06T00:49:15.639Z,0.00
2018-09-06T00:50:15.793Z,0.00
2018-09-06T00:51:15.949Z,0.00
2018-09-06T00:52:16.098Z,0.00
2018-09-06T00:53:16.250Z,0.00
2018-09-06T00:54:16.403Z,0.00
2018-09-06T00:55:16.559Z,0.00
2018-09-06T00:56:16.713Z,0.00
2018-09-06T00:57:16.867Z,0.00
2018-09-06T00:58:17.017Z,0.00
2018-09-06T00:59:17.171Z,0.00
2018-09-06T01:00:17.325Z,0.00
2018-09-06T01:01:17.477Z,0.00
2018-09-06T01:02:17.633Z,0.00
2018-09-06T01:03:17.788Z,0.00
2018-09-06T01:04:17.940Z,0.00
2018-09-06T01:05:18.094Z,0.00
2018-09-06T01:06:18.246Z,0.00
2018-09-06T01:07:18.401Z,0.00
2018-09-06T01:08:18.557Z,0.00
2018-09-06T01:09:18.710Z,0.00
2018-09-06T01:10:18.859Z,0.00
2018-09-06T01:11:19.014Z,0.00
2018-09-06T01:12:19.165Z,0.00
2018-09-06T01:13:19.316Z,0.00
2018-09-06T01:14:19.472Z,0.00
2018-09-06T01:15:19.627Z,0.00
2018-09-06T01:16:19.776Z,0.00
2018-09-06T01:17:19.931Z,0.00
2018-09-06T01:18:20.085Z,0.00
2018-09-06T01:19:20.239Z,0.00
2018-09-06T01:20:20.391Z,0.00
2018-09-06T01:21:20.544Z,0.00
2018-09-06T01:22:20.697Z,0.00
2018-09-06T01:23:20.849Z,0.00
2018-09-06T01:24:21.001Z,0.00
2018-09-06T01:25:21.154Z,0.00
2018-09-06T01:26:21.309Z,0.00
2018-09-06T01:27:21.464Z,0.00
2018-09-06T01:28:21.617Z,0.00
2018-09-06T01:29:21.769Z,0.00
2018-09-06T01:30:21.923Z,0.00
2018-09-06T01:31:22.076Z,0.00
2018-09-06T01:32:22.230Z,0.00
2018-09-06T01:33:22.385Z,0.00
2018-09-06T01:34:22.537Z,0.00
2018-09-06T01:35:22.693Z,0.00
2018-09-06T01:36:22.843Z,0.00
2018-09-06T01:37:22.997Z,0.00
2018-09-06T01:38:23.154Z,0.00
2018-09-06T01:39:23.305Z,0.00
2018-09-06T01:40:23.456Z,0.00
2018-09-06T01:41:23.609Z,0.00
2018-09-06T01:42:23.763Z,0.00
2018-09-06T01:43:23.916Z,0.00
2018-09-06T01:44:24.071Z,0.00
2018-09-06T01:45:24.223Z,0.00
2018-09-06T01:46:24.376Z,0.00
2018-09-06T01:47:24.528Z,0.00
2018-09-06T01:48:24.683Z,0.00
2018-09-06T01:49:24.837Z,0.00
2018-09-06T01:50:24.990Z,0.00
2018-09-06T01:51:25.144Z,0.00
2018-09-06T01:52:25.297Z,0.00
2018-09-06T01:53:25.451Z,0.00
2018-09-06T01:54:25.601Z,0.00
2018-09-06T01:55:25.756Z,0.00
2018-09-06T01:56:25.907Z,0.00
2018-09-06T01:57:26.061Z,0.00
2018-09-06T01:58:26.220Z,0.00
2018-09-06T01:59:26.365Z,0.00
2018-09-06T02:00:26.520Z,0.00
2018-09-06T02:01:26.672Z,0.00
2018-09-06T02:02:26.823Z,0.00
2018-09-06T02:03:26.978Z,0.00
2018-09-06T02:04:27.132Z,0.00
2018-09-06T02:05:27.285Z,0.00
2018-09-06T02:06:27.438Z,0.00
2018-09-06T02:07:27.590Z,0.00
2018-09-06T02:08:27.746Z,0.00
2018-09-06T02:09:27.900Z,0.00
2018-09-06T02:10:28.051Z,0.00
2018-09-06T02:11:28.206Z,0.00
2018-09-06T02:12:28.360Z,0.00
2018-09-06T02:13:28.513Z,0.00
2018-09-06T02:14:28.665Z,0.00
2018-09-06T02:15:28.819Z,0.00
2018-09-06T02:16:28.971Z,0.00
2018-09-06T02:17:29.128Z,0.00
2018-09-06T02:18:29.279Z,0.00
2018-09-06T02:19:29.433Z,0.00
2018-09-06T02:20:29.591Z,0.00
2018-09-06T02:21:29.741Z,0.00
2018-09-06T02:22:29.891Z,0.00
2018-09-06T02:23:30.046Z,0.00
2018-09-06T02:24:30.265Z,0.00
2018-09-06T02:25:30.351Z,0.00
2018-09-06T02:26:30.505Z,0.00
2018-09-06T02:27:30.658Z,0.00
2018-09-06T02:28:30.809Z,0.00
2018-09-06T02:29:30.960Z,0.00
2018-09-06T02:30:31.115Z,0.00
2018-09-06T02:31:31.265Z,0.00
2018-09-06T02:32:31.419Z,0.00
2018-09-06T02:33:31.573Z,0.00
2018-09-06T02:34:31.723Z,0.00
2018-09-06T02:35:31.876Z,0.00
2018-09-06T02:36:32.032Z,0.00
2018-09-06T02:37:32.183Z,0.00
2018-09-06T02:38:32.335Z,0.00
2018-09-06T02:39:32.489Z,0.00
2018-09-06T02:40:32.641Z,0.00
2018-09-06T02:41:32.793Z,0.00
2018-09-06T02:42:32.947Z,0.00
2018-09-06T02:43:33.099Z,0.00
2018-09-06T02:44:33.257Z,0.00
2018-09-06T02:45:33.417Z,0.00
2018-09-06T02:46:33.561Z,0.00
2018-09-06T02:47:33.713Z,0.00
2018-09-06T02:48:33.867Z,0.00
2018-09-06T02:49:34.021Z,0.00
2018-09-06T02:50:34.172Z,0.00
2018-09-06T02:51:34.326Z,0.00
2018-09-06T02:52:34.478Z,0.00
2018-09-06T02:53:34.632Z,0.00
2018-09-06T02:54:34.786Z,0.00
2018-09-06T02:55:34.949Z,0.00
2018-09-06T02:56:35.083Z,0.00
2018-09-06T02:57:35.236Z,0.00
2018-09-06T02:58:35.389Z,0.00
2018-09-06T02:59:35.545Z,0.00
2018-09-06T03:00:35.699Z,0.00
2018-09-06T03:01:35.855Z,0.00
2018-09-06T03:02:36.004Z,0.00
2018-09-06T03:03:36.157Z,0.00
2018-09-06T03:04:36.309Z,0.00
2018-09-06T03:05:36.474Z,0.00
2018-09-06T03:06:36.611Z,0.00
2018-09-06T03:07:36.767Z,0.00
2018-09-06T03:08:36.916Z,0.00
2018-09-06T03:09:37.069Z,0.00
2018-09-06T03:10:37.224Z,0.00
2018-09-06T03:11:37.375Z,0.00
2018-09-06T03:12:37.526Z,0.00
2018-09-06T03:13:37.678Z,0.00
2018-09-06T03:14:37.832Z,0.00
2018-09-06T03:15:37.979Z,0.00
2018-09-06T03:16:38.128Z,0.00
2018-09-06T03:17:38.283Z,0.00
2018-09-06T03:18:38.435Z,0.00
2018-09-06T03:19:38.588Z,0.00
2018-09-06T03:20:38.741Z,0.00
2018-09-06T03:21:38.892Z,0.00
2018-09-06T03:22:39.045Z,0.00
2018-09-06T03:23:39.198Z,0.00
2018-09-06T03:24:39.352Z,0.00
2018-09-06T03:25:39.503Z,0.00
2018-09-06T03:26:39.657Z,0.00
2018-09-06T03:27:39.811Z,0.00
2018-09-06T03:28:39.962Z,0.00
2018-09-06T03:29:40.116Z,0.00
2018-09-06T03:30:40.270Z,0.00
2018-09-06T03:31:40.431Z,0.00
2018-09-06T03:32:40.577Z,0.00
2018-09-06T03:33:40.725Z,0.00
2018-09-06T03:34:40.880Z,0.00
2018-09-06T03:35:41.032Z,0.00
2018-09-06T03:36:41.183Z,0.00
2018-09-06T03:37:41.337Z,0.00
2018-09-06T03:38:41.504Z,0.00
2018-09-06T03:39:41.641Z,0.00
2018-09-06T03:40:41.794Z,0.00
2018-09-06T03:41:41.948Z,0.00
2018-09-06T03:42:42.099Z,0.00
2018-09-06T03:43:42.257Z,0.00
2018-09-06T03:44:42.408Z,0.00
2018-09-06T03:45:42.559Z,0.00
2018-09-06T03:46:42.716Z,0.00
2018-09-06T03:47:42.871Z,0.00
2018-09-06T03:48:43.018Z,0.00
2018-09-06T03:49:43.174Z,0.00
2018-09-06T03:50:43.324Z,0.00
2018-09-06T03:51:43.474Z,0.00
2018-09-06T03:52:43.628Z,0.00
2018-09-06T03:53:43.781Z,0.00
2018-09-06T03:54:43.931Z,0.00
2018-09-06T03:55:44.086Z,0.00
2018-09-06T03:56:44.236Z,0.00
2018-09-06T03:57:44.390Z,0.00
2018-09-06T03:58:44.543Z,0.00
2018-09-06T03:59:44.697Z,0.00
2018-09-06T04:00:44.847Z,0.00
2018-09-06T04:01:45.000Z,0.00
2018-09-06T04:02:45.152Z,0.00
2018-09-06T04:03:45.305Z,0.00
2018-09-06T04:04:45.457Z,0.00
2018-09-06T04:05:45.607Z,0.00
2018-09-06T04:06:45.762Z,0.00
2018-09-06T04:07:45.914Z,0.00
2018-09-06T04:08:46.065Z,4.00
2018-09-06T04:09:46.216Z,4.00
2018-09-06T04:10:46.375Z,0.00
2018-09-06T04:11:46.525Z,4.00
2018-09-06T04:12:46.686Z,4.00
2018-09-06T04:13:46.829Z,4.00
2018-09-06T04:14:46.981Z,4.00
2018-09-06T04:15:47.133Z,8.00
2018-09-06T04:16:47.291Z,8.00
2018-09-06T04:17:47.435Z,8.00
2018-09-06T04:18:47.589Z,12.00
2018-09-06T04:19:47.741Z,8.00
2018-09-06T04:20:47.894Z,12.00
2018-09-06T04:21:48.044Z,16.00
2018-09-06T04:22:48.203Z,16.00
2018-09-06T04:23:48.349Z,20.00
2018-09-06T04:24:48.500Z,24.00
2018-09-06T04:25:48.656Z,28.00
2018-09-06T04:26:48.806Z,32.00
2018-09-06T04:27:48.960Z,40.00
2018-09-06T04:28:49.113Z,48.00
2018-09-06T04:29:49.267Z,52.00
2018-09-06T04:30:49.424Z,60.00
2018-09-06T04:31:49.572Z,68.00
2018-09-06T04:32:49.724Z,80.00
2018-09-06T04:33:49.878Z,88.00
2018-09-06T04:34:50.034Z,100.00
2018-09-06T04:35:50.186Z,116.00
2018-09-06T04:36:50.339Z,128.00
2018-09-06T04:37:50.493Z,140.00
2018-09-06T04:38:50.647Z,160.00
2018-09-06T04:39:50.802Z,176.00
2018-09-06T04:40:50.954Z,192.00
2018-09-06T04:41:51.107Z,208.00
2018-09-06T04:42:51.260Z,228.00
2018-09-06T04:43:51.451Z,248.00
2018-09-06T04:44:51.568Z,268.00
2018-09-06T04:45:51.716Z,296.00
2018-09-06T04:46:51.870Z,316.00
2018-09-06T04:47:52.020Z,340.00
2018-09-06T04:48:52.174Z,368.00
2018-09-06T04:49:52.327Z,396.00
2018-09-06T04:50:52.482Z,420.00
2018-09-06T04:51:52.638Z,452.00
2018-09-06T04:52:52.790Z,484.00
2018-09-06T04:53:52.937Z,516.00
2018-09-06T04:54:53.093Z,552.00
2018-09-06T04:55:53.247Z,588.00
2018-09-06T04:56:53.395Z,628.00
2018-09-06T04:57:53.550Z,668.00
2018-09-06T04:58:53.704Z,708.00
2018-09-06T04:59:53.859Z,748.00
2018-09-06T05:00:54.014Z,796.00
2018-09-06T05:01:54.163Z,840.00
2018-09-06T05:02:54.313Z,888.00
2018-09-06T05:03:54.468Z,940.00
2018-09-06T05:04:54.621Z,984.00
2018-09-06T05:05:54.773Z,1036.00
2018-09-06T05:06:54.925Z,1088.00
2018-09-06T05:07:55.077Z,1136.00
2018-09-06T05:08:55.230Z,1188.00
2018-09-06T05:09:55.383Z,1244.00
2018-09-06T05:10:55.535Z,1292.00
2018-09-06T05:11:55.693Z,1344.00
2018-09-06T05:12:55.841Z,1396.00
2018-09-06T05:13:55.993Z,1452.00
2018-09-06T05:14:56.144Z,1504.00
2018-09-06T05:15:56.299Z,1564.00
2018-09-06T05:16:56.456Z,1612.00
2018-09-06T05:17:56.605Z,1664.00
2018-09-06T05:18:56.755Z,1716.00
2018-09-06T05:19:56.908Z,1768.00
2018-09-06T05:20:57.063Z,1824.00
2018-09-06T05:21:57.227Z,1884.00
2018-09-06T05:22:57.369Z,1940.00
2018-09-06T05:23:57.522Z,1996.00
2018-09-06T05:24:57.673Z,2048.00
2018-09-06T05:25:57.826Z,2100.00
2018-09-06T05:26:57.981Z,2148.00
2018-09-06T05:27:58.133Z,2196.00
2018-09-06T05:28:58.286Z,2244.00
2018-09-06T05:29:58.438Z,2288.00
2018-09-06T05:30:58.594Z,2332.00
2018-09-06T05:31:58.747Z,2372.00
2018-09-06T05:32:58.906Z,2420.00
2018-09-06T05:33:59.047Z,2472.00
2018-09-06T05:34:59.236Z,2520.00
2018-09-06T05:35:59.365Z,2568.00
2018-09-06T05:36:59.509Z,2616.00
2018-09-06T05:37:59.662Z,2664.00
2018-09-06T05:38:59.814Z,2716.00
2018-09-06T05:39:59.968Z,2768.00
2018-09-06T05:41:00.121Z,2816.00
2018-09-06T05:42:00.276Z,2860.00
2018-09-06T05:43:00.430Z,2912.00
2018-09-06T05:44:00.582Z,2964.00
2018-09-06T05:45:00.738Z,3012.00
2018-09-06T05:46:00.888Z,3068.00
2018-09-06T05:47:01.042Z,3136.00
2018-09-06T05:48:01.191Z,3212.00
2018-09-06T05:49:01.345Z,3288.00
2018-09-06T05:50:01.497Z,3356.00
2018-09-06T05:51:01.653Z,3428.00
2018-09-06T05:52:01.806Z,3484.00
2018-09-06T05:53:01.964Z,3540.00
2018-09-06T05:54:02.113Z,3584.00
2018-09-06T05:55:02.264Z,3628.00
2018-09-06T05:56:02.417Z,3668.00
2018-09-06T05:57:02.571Z,3728.00
2018-09-06T05:58:02.746Z,3788.00
2018-09-06T05:59:02.878Z,3828.00
2018-09-06T06:00:03.108Z,3852.00
2018-09-06T06:01:03.188Z,3868.00
2018-09-06T06:02:03.339Z,3884.00
2018-09-06T06:03:03.497Z,3904.00
2018-09-06T06:04:03.647Z,3932.00
2018-09-06T06:05:03.802Z,3952.00
2018-09-06T06:06:03.955Z,3968.00
2018-09-06T06:07:04.108Z,3988.00
2018-09-06T06:08:04.261Z,4008.00
2018-09-06T06:09:04.417Z,4032.00
2018-09-06T06:10:04.571Z,4056.00
2018-09-06T06:11:04.724Z,4092.00
2018-09-06T06:12:04.879Z,4128.00
2018-09-06T06:13:05.030Z,4172.00
2018-09-06T06:14:05.181Z,4228.00
2018-09-06T06:15:05.338Z,4284.00
2018-09-06T06:16:05.548Z,4348.00
2018-09-06T06:17:05.645Z,4412.00
2018-09-06T06:18:05.798Z,4472.00
2018-09-06T06:19:05.951Z,4540.00
2018-09-06T06:20:06.116Z,4600.00
2018-09-06T06:21:06.287Z,4660.00
2018-09-06T06:22:06.410Z,4724.00
2018-09-06T06:23:06.562Z,4792.00
2018-09-06T06:24:06.717Z,4864.00
2018-09-06T06:25:06.870Z,4936.00
2018-09-06T06:26:07.074Z,5040.00
2018-09-06T06:27:07.176Z,5192.00
2018-09-06T06:28:07.333Z,5368.00
2018-09-06T06:29:07.484Z,5580.00
2018-09-06T06:30:07.637Z,5808.00
2018-09-06T06:31:07.792Z,6036.00
2018-09-06T06:32:07.980Z,6240.00
2018-09-06T06:33:08.116Z,6412.00
2018-09-06T06:34:08.332Z,6552.00
2018-09-06T06:35:08.402Z,6688.00
2018-09-06T06:36:08.557Z,6816.00
2018-09-06T06:37:08.710Z,6908.00
2018-09-06T06:38:08.863Z,7004.00
2018-09-06T06:39:09.018Z,7076.00
2018-09-06T06:40:09.173Z,7124.00
2018-09-06T06:41:09.326Z,7112.00
2018-09-06T06:42:09.482Z,7048.00
2018-09-06T06:43:09.635Z,6924.00
2018-09-06T06:44:09.792Z,6904.00
2018-09-06T06:45:09.946Z,6924.00
2018-09-06T06:46:10.100Z,6880.00
2018-09-06T06:47:10.258Z,6772.00
2018-09-06T06:48:10.408Z,6660.00
2018-09-06T06:49:10.563Z,6564.00
2018-09-06T06:50:10.723Z,6460.00
2018-09-06T06:51:10.874Z,6320.00
2018-09-06T06:52:11.027Z,6212.00
2018-09-06T06:53:11.181Z,6112.00
2018-09-06T06:54:11.337Z,5992.00
2018-09-06T06:55:11.492Z,5840.00
2018-09-06T06:56:11.649Z,5672.00
2018-09-06T06:57:11.802Z,5548.00
2018-09-06T06:58:11.956Z,5488.00
2018-09-06T06:59:12.109Z,5428.00
2018-09-06T07:00:12.268Z,5324.00
2018-09-06T07:01:12.420Z,5252.00
2018-09-06T07:02:12.578Z,5100.00
2018-09-06T07:03:12.737Z,5172.00
2018-09-06T07:04:12.932Z,5156.00
2018-09-06T07:05:13.041Z,5072.00
2018-09-06T07:06:13.202Z,4964.00
2018-09-06T07:07:13.474Z,4952.00
2018-09-06T07:08:13.507Z,4868.00
2018-09-06T07:09:13.664Z,4976.00
2018-09-06T07:10:13.820Z,4932.00
2018-09-06T07:11:13.976Z,4908.00
2018-09-06T07:12:14.129Z,4952.00
2018-09-06T07:13:14.284Z,5216.00
2018-09-06T07:14:14.437Z,5228.00
2018-09-06T07:15:14.593Z,5396.00
2018-09-06T07:16:14.749Z,5480.00
2018-09-06T07:17:14.903Z,5520.00
2018-09-06T07:18:15.165Z,5552.00
2018-09-06T07:19:15.216Z,5600.00
2018-09-06T07:20:15.373Z,5636.00
2018-09-06T07:21:15.529Z,5668.00
2018-09-06T07:22:15.684Z,5708.00
2018-09-06T07:23:15.840Z,5740.00
2018-09-06T07:24:15.997Z,5788.00
2018-09-06T07:25:16.150Z,5812.00
2018-09-06T07:26:16.305Z,5832.00
2018-09-06T07:27:16.463Z,5860.00
2018-09-06T07:28:16.617Z,5880.00
2018-09-06T07:29:16.773Z,5900.00
2018-09-06T07:30:16.928Z,5912.00
2018-09-06T07:31:17.087Z,5908.00
2018-09-06T07:32:17.239Z,5992.00
2018-09-06T07:33:17.398Z,6020.00
2018-09-06T07:34:17.554Z,6044.00
2018-09-06T07:35:17.749Z,6088.00
2018-09-06T07:36:17.863Z,6120.00
2018-09-06T07:37:18.015Z,6148.00
2018-09-06T07:38:18.171Z,6148.00
2018-09-06T07:39:18.325Z,6184.00
2018-09-06T07:40:18.481Z,6200.00
2018-09-06T07:41:18.659Z,6120.00
2018-09-06T07:42:18.792Z,6252.00
2018-09-06T07:43:18.946Z,6276.00
2018-09-06T07:44:19.103Z,6256.00
2018-09-06T07:45:19.258Z,6260.00
2018-09-06T07:46:19.418Z,6240.00
2018-09-06T07:47:19.571Z,6228.00
2018-09-06T07:48:19.727Z,6204.00
2018-09-06T07:49:19.882Z,6228.00
2018-09-06T07:50:20.040Z,6260.00
2018-09-06T07:51:20.193Z,6272.00
2018-09-06T07:52:20.364Z,6280.00
2018-09-06T07:53:20.505Z,6272.00
2018-09-06T07:54:20.663Z,6288.00
2018-09-06T07:55:20.819Z,6296.00
2018-09-06T07:56:20.974Z,6304.00
2018-09-06T07:57:21.131Z,6288.00
2018-09-06T07:58:21.288Z,6312.00
2018-09-06T07:59:21.444Z,6316.00
2018-09-06T08:00:21.599Z,6332.00
2018-09-06T08:01:21.755Z,6340.00
2018-09-06T08:02:21.914Z,6336.00
2018-09-06T08:03:22.067Z,6336.00
2018-09-06T08:04:22.225Z,6328.00
2018-09-06T08:05:22.378Z,6328.00
2018-09-06T08:06:22.536Z,6312.00
2018-09-06T08:07:22.693Z,6308.00
2018-09-06T08:08:22.851Z,6292.00
2018-09-06T08:09:23.008Z,6292.00
2018-09-06T08:10:23.162Z,6276.00
2018-09-06T08:11:23.319Z,6268.00
2018-09-06T08:12:23.477Z,6264.00
2018-09-06T08:13:23.632Z,6292.00
2018-09-06T08:14:23.789Z,6288.00
2018-09-06T08:15:23.943Z,6316.00
2018-09-06T08:16:24.098Z,6348.00
2018-09-06T08:17:24.256Z,6396.00
2018-09-06T08:18:24.411Z,6428.00
2018-09-06T08:19:24.570Z,6448.00
2018-09-06T08:20:24.725Z,6476.00
2018-09-06T08:21:24.883Z,6500.00
2018-09-06T08:22:25.044Z,6516.00
2018-09-06T08:23:25.203Z,6524.00
2018-09-06T08:24:25.445Z,6532.00
2018-09-06T08:25:25.511Z,6504.00
2018-09-06T08:26:25.668Z,6528.00
2018-09-06T08:27:25.828Z,6572.00
2018-09-06T08:28:25.982Z,6620.00
2018-09-06T08:29:26.137Z,6672.00
2018-09-06T08:30:26.349Z,6704.00
2018-09-06T08:31:26.483Z,6728.00
2018-09-06T08:32:26.610Z,6768.00
2018-09-06T08:33:26.763Z,6808.00
2018-09-06T08:34:26.919Z,6780.00
2018-09-06T08:35:27.078Z,6752.00
2018-09-06T08:36:27.235Z,6708.00
2018-09-06T08:37:27.393Z,6728.00
2018-09-06T08:38:27.551Z,6680.00
2018-09-06T08:39:27.706Z,6816.00
2018-09-06T08:40:27.865Z,6856.00
2018-09-06T08:41:28.020Z,6872.00
2018-09-06T08:42:28.177Z,6848.00
2018-09-06T08:43:28.333Z,6880.00
2018-09-06T08:44:28.491Z,6828.00
2018-09-06T08:45:28.693Z,6784.00
2018-09-06T08:46:28.809Z,6780.00
2018-09-06T08:47:28.980Z,6788.00
2018-09-06T08:48:29.127Z,6884.00
2018-09-06T08:49:29.282Z,6864.00
2018-09-06T08:50:29.442Z,7140.00
2018-09-06T08:51:29.599Z,7172.00
2018-09-06T08:52:29.781Z,7324.00
2018-09-06T08:53:29.917Z,7340.00
2018-09-06T08:54:30.070Z,7332.00
2018-09-06T08:55:30.230Z,7284.00
2018-09-06T08:56:30.388Z,7380.00
2018-09-06T08:57:30.556Z,7452.00
2018-09-06T08:58:30.728Z,7140.00
2018-09-06T08:59:30.874Z,7368.00
2018-09-06T09:00:31.034Z,7508.00
2018-09-06T09:01:31.193Z,7696.00
2018-09-06T09:02:31.358Z,7724.00
2018-09-06T09:03:31.510Z,7768.00
2018-09-06T09:04:31.679Z,7832.00
2018-09-06T09:05:31.831Z,7856.00
2018-09-06T09:06:31.992Z,7820.00
2018-09-06T09:07:32.189Z,7756.00
2018-09-06T09:08:32.372Z,7564.00
2018-09-06T09:09:32.476Z,7400.00
2018-09-06T09:10:32.631Z,7372.00
2018-09-06T09:11:32.787Z,7424.00
2018-09-06T09:12:32.963Z,7516.00
2018-09-06T09:13:33.107Z,7540.00
2018-09-06T09:14:33.274Z,7500.00
2018-09-06T09:15:33.430Z,7448.00
2018-09-06T09:16:33.592Z,7416.00
2018-09-06T09:17:33.750Z,7332.00
2018-09-06T09:18:33.917Z,7356.00
2018-09-06T09:19:34.076Z,7276.00
2018-09-06T09:20:34.239Z,7304.00
2018-09-06T09:21:34.447Z,7260.00
2018-09-06T09:22:34.564Z,7300.00
2018-09-06T09:23:34.721Z,7384.00
2018-09-06T09:24:34.880Z,7372.00
2018-09-06T09:25:35.111Z,7440.00
2018-09-06T09:26:35.200Z,7532.00
2018-09-06T09:27:35.361Z,7600.00
2018-09-06T09:28:35.525Z,7592.00
2018-09-06T09:29:35.685Z,7712.00
2018-09-06T09:30:35.903Z,7844.00
2018-09-06T09:31:36.003Z,8040.00
2018-09-06T09:32:36.166Z,8248.00
2018-09-06T09:33:36.321Z,8408.00
2018-09-06T09:34:36.485Z,8700.00
2018-09-06T09:35:36.643Z,9020.00
2018-09-06T09:36:36.809Z,9160.00
2018-09-06T09:37:36.964Z,9308.00
2018-09-06T09:38:37.125Z,9400.00
2018-09-06T09:39:37.285Z,9440.00
2018-09-06T09:40:37.444Z,9596.00
2018-09-06T09:41:37.605Z,9736.00
2018-09-06T09:42:37.766Z,9776.00
2018-09-06T09:43:37.926Z,9812.00
2018-09-06T09:44:38.088Z,9760.00
2018-09-06T09:45:38.249Z,9788.00
2018-09-06T09:48:11.479Z,9828.00
2018-09-06T09:49:11.636Z,9640.00
2018-09-06T09:51:44.841Z,9312.00
2018-09-06T09:52:45.001Z,9244.00
2018-09-06T09:53:45.163Z,9240.00
2018-09-06T09:54:45.327Z,9108.00
2018-09-06T09:55:45.484Z,9016.00
2018-09-06T09:56:45.644Z,8856.00
2018-09-06T09:57:45.808Z,8588.00
2018-09-06T09:58:45.963Z,8496.00
2018-09-06T09:59:46.126Z,8208.00
2018-09-06T10:00:46.288Z,8136.00
2018-09-06T10:01:46.449Z,7928.00
2018-09-06T10:02:46.608Z,8080.00
2018-09-06T10:03:46.824Z,8384.00
2018-09-06T10:04:46.925Z,8516.00
2018-09-06T10:05:47.089Z,8632.00
2018-09-06T10:06:47.255Z,8652.00
2018-09-06T10:07:47.410Z,8772.00
2018-09-06T10:08:47.572Z,8944.00
2018-09-06T10:09:47.731Z,8992.00
2018-09-06T10:10:47.892Z,9044.00
2018-09-06T10:11:48.054Z,9212.00
2018-09-06T10:12:48.212Z,9332.00
2018-09-06T10:13:48.372Z,9364.00
2018-09-06T10:14:48.533Z,9460.00
2018-09-06T10:15:48.695Z,9456.00
2018-09-06T10:16:48.857Z,9540.00
2018-09-06T10:17:49.017Z,9516.00
2018-09-06T10:18:49.178Z,9432.00
2018-09-06T10:19:49.336Z,9412.00
2018-09-06T10:20:49.497Z,9260.00
2018-09-06T10:21:49.659Z,9220.00
2018-09-06T10:22:49.819Z,9036.00
2018-09-06T10:23:49.979Z,9248.00
2018-09-06T10:24:50.139Z,9252.00
2018-09-06T10:25:50.301Z,9424.00
2018-09-06T10:26:50.466Z,9448.00
2018-09-06T10:27:50.628Z,9392.00
2018-09-06T10:28:50.786Z,9396.00
2018-09-06T10:29:50.950Z,9452.00
2018-09-06T10:30:51.111Z,9664.00
2018-09-06T10:31:51.271Z,9876.00
2018-09-06T10:32:51.432Z,10104.00
2018-09-06T10:33:51.595Z,10260.00
2018-09-06T10:34:51.754Z,10440.00
2018-09-06T10:35:51.915Z,10484.00
2018-09-06T10:36:52.077Z,10620.00
2018-09-06T10:37:52.236Z,10676.00
2018-09-06T10:38:52.398Z,10744.00
2018-09-06T10:39:52.614Z,10908.00
2018-09-06T10:40:52.717Z,11036.00
2018-09-06T10:41:52.876Z,11056.00
2018-09-06T10:42:53.043Z,11080.00
2018-09-06T10:43:53.199Z,11140.00
2018-09-06T10:44:53.362Z,11232.00
2018-09-06T10:45:53.521Z,11332.00
2018-09-06T10:46:53.684Z,11400.00
2018-09-06T10:47:53.884Z,11452.00
2018-09-06T10:48:54.009Z,11504.00
2018-09-06T10:49:54.166Z,11476.00
2018-09-06T10:50:54.326Z,11588.00
2018-09-06T10:51:54.489Z,11620.00
2018-09-06T10:52:54.649Z,11608.00
2018-09-06T10:53:54.810Z,11580.00
2018-09-06T10:54:54.976Z,11452.00
2018-09-06T10:55:55.140Z,11268.00
2018-09-06T10:56:55.302Z,11152.00
2018-09-06T10:57:55.463Z,11060.00
2018-09-06T10:58:55.625Z,11080.00
2018-09-06T10:59:55.788Z,11048.00
2018-09-06T11:00:55.946Z,11112.00
2018-09-06T11:01:56.108Z,11188.00
2018-09-06T11:02:56.268Z,11320.00
2018-09-06T11:03:56.427Z,11500.00
2018-09-06T11:04:56.591Z,11600.00
2018-09-06T11:05:56.754Z,11680.00
2018-09-06T11:06:56.912Z,11668.00
2018-09-06T11:07:57.100Z,11788.00
2018-09-06T11:08:57.233Z,11900.00
2018-09-06T11:09:57.397Z,11940.00
2018-09-06T11:10:57.557Z,12004.00
2018-09-06T11:11:57.727Z,12128.00
2018-09-06T11:12:57.884Z,12220.00
2018-09-06T11:13:58.044Z,12300.00
2018-09-06T11:14:58.220Z,12396.00
2018-09-06T11:15:58.369Z,12424.00
2018-09-06T11:16:58.530Z,12508.00
2018-09-06T11:17:58.722Z,12604.00
2018-09-06T11:18:58.850Z,12708.00
2018-09-06T11:19:59.024Z,12796.00
2018-09-06T11:20:59.180Z,12784.00
2018-09-06T11:21:59.375Z,12776.00
2018-09-06T11:22:59.507Z,12980.00
2018-09-06T11:23:59.662Z,12908.00
2018-09-06T11:24:59.827Z,12880.00
2018-09-06T11:25:59.982Z,12920.00
2018-09-06T11:27:00.144Z,13060.00
2018-09-06T11:28:00.353Z,13140.00
2018-09-06T11:29:00.471Z,13200.00
2018-09-06T11:30:00.630Z,13212.00
2018-09-06T11:31:00.798Z,13204.00
2018-09-06T11:32:00.960Z,13128.00
2018-09-06T11:33:01.126Z,13060.00
2018-09-06T11:34:01.289Z,13012.00
2018-09-06T11:35:01.451Z,12948.00
2018-09-06T11:36:01.611Z,12868.00
2018-09-06T11:37:01.771Z,12776.00
2018-09-06T11:38:01.933Z,12684.00
2018-09-06T11:39:02.098Z,12592.00
2018-09-06T11:40:02.312Z,12516.00
2018-09-06T11:41:02.419Z,12432.00
2018-09-06T11:42:02.631Z,12312.00
2018-09-06T11:43:02.745Z,12160.00
2018-09-06T11:44:02.908Z,12032.00
2018-09-06T11:45:03.083Z,11976.00
2018-09-06T11:46:03.231Z,11900.00
2018-09-06T11:47:03.506Z,11748.00
2018-09-06T11:48:03.556Z,11560.00
2018-09-06T11:49:03.716Z,11284.00
2018-09-06T11:50:03.883Z,10904.00
2018-09-06T11:51:04.045Z,10540.00
2018-09-06T11:52:04.206Z,10212.00
2018-09-06T11:53:04.367Z,9844.00
2018-09-06T11:54:04.532Z,9392.00
2018-09-06T11:55:04.696Z,8780.00
2018-09-06T11:56:04.859Z,8112.00
2018-09-06T11:57:05.022Z,7496.00
2018-09-06T11:58:05.217Z,7016.00
2018-09-06T11:59:05.346Z,6628.00
2018-09-06T12:00:05.508Z,6280.00
2018-09-06T12:01:05.673Z,5920.00
2018-09-06T12:02:05.852Z,5632.00
2018-09-06T12:03:05.995Z,5372.00
2018-09-06T12:04:06.157Z,5004.00
2018-09-06T12:05:06.318Z,4692.00
2018-09-06T12:06:06.511Z,4432.00
2018-09-06T12:07:06.652Z,4056.00
2018-09-06T12:08:06.803Z,3840.00
2018-09-06T12:09:06.962Z,3656.00
2018-09-06T12:10:07.124Z,3548.00
2018-09-06T12:11:07.282Z,3568.00
2018-09-06T12:12:07.451Z,3680.00
2018-09-06T12:13:07.614Z,3920.00
2018-09-06T12:14:07.774Z,4220.00
2018-09-06T12:15:07.943Z,4572.00
2018-09-06T12:16:08.121Z,5012.00
2018-09-06T12:17:08.261Z,5400.00
2018-09-06T12:18:08.428Z,5564.00
2018-09-06T12:19:08.587Z,5444.00
2018-09-06T12:20:08.748Z,4956.00
2018-09-06T12:21:08.908Z,4308.00
2018-09-06T12:22:09.069Z,3808.00
2018-09-06T12:23:09.228Z,3564.00
2018-09-06T12:24:09.392Z,3524.00
2018-09-06T12:25:09.557Z,3556.00
2018-09-06T12:26:09.712Z,3676.00
2018-09-06T12:27:09.873Z,3772.00
2018-09-06T12:28:10.034Z,3808.00
2018-09-06T12:29:10.196Z,3880.00
2018-09-06T12:30:10.357Z,3936.00
2018-09-06T12:31:10.513Z,3988.00
2018-09-06T12:32:10.685Z,3944.00
2018-09-06T12:33:10.863Z,3796.00